Tiempo atmosférico en la estación meteorológica de Villanueva De Córdoba, Córdoba (740 m.)



Fecha
DESCASC
Temp. máxima en grados centígrados (hora)
DESCASC
Temp. mínima en grados centígrados (hora)
DESCASC
Temp. media en grados centígrados
DESCASC
Racha de viento máxima en m/sg (hora)
DESCASC
Velocidad máxima media en intervalos de 10 minutos(hora)
DESCASC
Precipitaciones diarias en mm
DESCASC
Precipitaciones de 00:00 a 06:00 en mm
DESCASC
Precipitaciones de 06:00 a 12:00 en mm
DESCASC
Precipitaciones de 12:00 a 18:00 en mm
DESCASC
Precipitaciones de 18:00 a 24:00 en mm
DESCASC
15-08-2019 36.6 (16:30) 20.7 (06:30) 28.6 11.67 (17:20) 5 (17:20) 0 0 0 0 0
14-08-2019 34.5 (16:10) 17.8 (00:00) 26.1 8.61 (17:20) 3.61 (17:40) 0 0 0 0 0
13-08-2019 32.9 (17:10) 18.5 (00:00) 25.7 8.89 (16:50) 3.89 (17:20) 0 0 0 0 0
12-08-2019 30.7 (16:20) 13.2 (00:00) 22 8.06 (18:00) 3.61 (09:40) 0 0 0 0 0
11-08-2019 29.5 (17:00) 15.5 (00:00) 22.5 11.67 (15:50) 5.56 (16:40) 0 0 0 0 0
10-08-2019 34.7 (18:20) 17.4 (00:00) 26.1 9.17 (19:10) 4.72 (16:30) 0 0 0 0 0
09-08-2019 34.6 (18:20) 19.5 (00:00) 27 11.11 (16:00) 5 (15:40) 0 0 0 0 0
08-08-2019 35.9 (17:50) 18.8 (00:00) 27.4 11.67 (17:50) 5 (17:50) 0 0 0 0 0
07-08-2019 31 (13:40) 19.5 (00:00) 25.3 8.89 (13:30) 5 (13:40) 0 0 0 0 0
06-08-2019 36.5 (16:50) 18.7 (00:00) 27.6 9.72 (16:30) 5.28 (17:30) 0 0 0 0 0
05-08-2019 36.7 (17:50) 19.7 (00:00) 28.2 12.78 (18:00) 5 (20:10) 0 0 0 0 0
04-08-2019 36.4 (17:30) 19.2 (00:00) 27.8 10.28 (17:00) 4.44 (21:00) 0 0 0 0 0
03-08-2019 36.2 (17:40) 19.5 (00:00) 27.9 10 (17:40) 4.72 (16:50) 0 0 0 0 0
02-08-2019 37 (18:30) 19.1 (00:00) 28.1 11.39 (19:30) 5 (20:20) 0 0 0 0 0
01-08-2019 35.5 (17:00) 18.5 (00:00) 27 8.61 (15:30) 4.17 (18:30) 0 0 0 0 0
31-07-2019 36.1 (16:30) 19.5 (00:00) 27.8 9.17 (18:20) 4.72 (21:00) 0 0 0 0 0
30-07-2019 33.1 (17:10) 15.8 (00:00) 24.4 8.06 (16:20) 3.89 (04:40) 0 0 0 0 0
29-07-2019 32.9 (16:20) 17.2 (00:00) 25.1 10.83 (16:40) 5.56 (17:00) 0 0 0 0 0
28-07-2019 31.5 (18:00) 15.2 (00:00) 23.3 7.22 (17:50) 3.33 (17:40) 0 0 0 0 0
27-07-2019 24.7 (19:50) 13.5 (00:00) 19.1 12.5 (17:30) 6.94 (17:40) 0 0 0 0 0
26-07-2019 30.1 (15:00) 19.1 (00:00) 24.6 11.94 (15:30) 7.22 (17:30) 0 0 0 0 0
25-07-2019 35.9 (17:00) 21 (00:00) 28.5 10.56 (18:40) 5 (15:00) 0 0 0 0 0
24-07-2019 37 (16:50) 21.2 (00:00) 29.1 10 (17:00) 4.72 (17:00) 0 0 0 0 0
23-07-2019 37.5 (15:40) 23 (00:00) 30.3 11.67 (17:00) 6.11 (16:10) 0 0 0 0 0
22-07-2019 38 (17:30) 20.2 (00:00) 29.1 11.94 (18:10) 4.72 (16:30) 0 0 0 0 0
21-07-2019 40.2 (17:10) 21.1 (00:00) 30.7 10 (17:10) 3.61 (17:20) 0 0 0 0 0
20-07-2019 38.2 (17:20) 21.3 (00:00) 29.8 8.89 (20:20) 4.17 (20:30) 0 0 0 0 0
19-07-2019 38.2 (18:00) 20.9 (00:00) 29.6 9.72 (14:20) 4.44 (14:20) 0 0 0 0 0

Gráficas

Temp. máximas Temp. mínimas Temp. medias Precipitaciones Rachas de viento máximas Velocidades máximas media en intervalos de 10 minutos

Datos horarios

Fecha y hora oficial Temperatura (ºC) Velocidad del viento (km/h) Dirección del viento Racha (km/h) Dirección de racha Precipitación (mm) Presión (hPa) Tendencia (hPa) Humedad (%)
2019-08-17 23:00:00 29.1 8 Oeste 18 Oeste 0 930.3 1 20
2019-08-17 22:00:00 30.1 9 Sur 17 Sudoeste 0 929.5 -0.1 15
2019-08-17 21:00:00 33.2 9 Sudoeste 28 Sudoeste 0 929.4 -0.6 12
2019-08-17 20:00:00 35.5 14 Sudoeste 29 Sudoeste 0 929.3 -1.1 11
2019-08-17 19:00:00 36.5 14 Oeste 31 Sur 0 929.6 -1.2 10
2019-08-17 18:00:00 37.2 10 Sur 33 Sudoeste 0 930 -1.5 11
2019-08-17 17:00:00 37.7 15 Sur 34 Sudoeste 0 930.4 -1.6 10
2019-08-17 16:00:00 37.3 11 Sur 35 Sudoeste 0 930.8 -1.6 13
2019-08-17 15:00:00 36.3 18 Sudoeste 32 Sur 0 931.5 -1.4 13
2019-08-17 14:00:00 35.5 17 Sudoeste 33 Sudoeste 0 932 -0.9 14
2019-08-17 13:00:00 35 10 Sur 26 Sudeste 0 932.4 -0.5 17
2019-08-17 12:00:00 33.5 6 Sudeste 23 Sur 0 932.9 0.2 19
2019-08-17 11:00:00 31.7 8 Sudeste 17 Sur 0 932.9 0.5 22
2019-08-17 10:00:00 28.8 6 Sur 12 Sur 0 932.9 0.7 27
2019-08-17 09:00:00 24.1 8 Sur 15 Sur 0 932.7 0.5 37
2019-08-17 08:00:00 21.8 8 Sudeste 11 Sur 0 932.4 0.1 43
2019-08-17 07:00:00 21.4 6 Sur 14 Sudeste 0 932.2 -0.1 44
2019-08-17 06:00:00 21.3 8 Sur 12 Sudeste 0 932.2 -0.3 44
2019-08-17 05:00:00 22.2 7 Sur 12 Sur 0 932.3 -0.3 41
2019-08-17 04:00:00 23.9 8 Sur 11 Sudeste 0 932.3 -0.5 36
2019-08-17 03:00:00 25.3 7 Sudoeste 13 Sudoeste 0 932.5 -0.3 32
2019-08-17 02:00:00 26.1 6 Sudoeste 14 Sudoeste 0 932.6 -0.1 31
2019-08-17 01:00:00 26.6 9 Sudoeste 18 Sudoeste 0 932.8 0.5 30
2019-08-17 00:00:00 28.3 9 Sudoeste 22 Sudoeste 0 932.8 1.4 28
2019-08-16 23:00:00 29.5 10 Sudoeste 24 Sudoeste 0 932.7 1.6 25
2019-08-16 22:00:00 30 10 Oeste 24 Sudoeste 0 932.3 1.1 23
2019-08-16 21:00:00 32.7 14 Sudoeste 29 Oeste 0 931.4 -0.1 19
2019-08-16 20:00:00 34.7 17 Sudoeste 33 Sudoeste 0 931.1 -0.9 16
2019-08-16 19:00:00 36.6 5 Sudoeste 23 Sudoeste 0 931.2 -1.3 14
2019-08-16 18:00:00 36.8 8 Oeste 34 Oeste 0 931.5 -1.5 13
2019-08-16 17:00:00 37.2 11 Sur 32 Sudoeste 0 932 -1.4 13
2019-08-16 16:00:00 36.1 10 Oeste 37 Sudoeste 0 932.5 -1.3 14
2019-08-16 15:00:00 36.2 14 Sudoeste 31 Sudeste 0 933 -0.9 15
2019-08-16 14:00:00 35.3 12 Sudoeste 27 Sur 0 933.4 -0.5 17
2019-08-16 13:00:00 34.2 12 Sur 27 Sudeste 0 933.8 -0.1 19
2019-08-16 12:00:00 32.1 13 Sur 25 Sur 0 933.9 0.5 23
2019-08-16 11:00:00 30 11 Sur 22 Sudeste 0 933.9 0.6 25
2019-08-16 10:00:00 27.4 7 Sur 17 Sur 0 933.9 1 29
2019-08-16 09:00:00 23 10 Sur 17 Sur 0 933.4 0.7 39
2019-08-16 08:00:00 20.7 10 Sur 18 Sur 0 933.3 0.6 46
2019-08-16 07:00:00 20.7 9 Sur 18 Sur 0 932.9 0 45
2019-08-16 06:00:00 21.5 11 Sur 18 Sur 0 932.7 -0.3 42
2019-08-16 05:00:00 22.5 9 Sur 17 Sur 0 932.7 -0.5 38
2019-08-16 04:00:00 23.8 8 Sur 13 Sur 0 932.9 -0.4 30
2019-08-16 03:00:00 25.5 6 Oeste 12 Sudoeste 0 933 -0.3 28
2019-08-16 02:00:00 26.4 6 Oeste 9 Oeste 0 933.2 0 27
2019-08-16 01:00:00 26.7 6 Oeste 12 Oeste 0 933.3 0.6 25
2019-08-16 00:00:00 26.4 6 Sudoeste 9 Sur 0 933.3 1 24
2019-08-15 23:00:00 28.5 5 Noroeste 13 Norte 0 933.2 1.1 22
2019-08-15 22:00:00 29.7 7 Noroeste 13 Norte 0 932.7 0.6 20
2019-08-15 21:00:00 32.6 6 Noroeste 23 Norte 0 932.3 0 16
2019-08-15 20:00:00 34.5 11 Noroeste 27 Oeste 0 932.1 -0.4 13
2019-08-15 19:00:00 35.4 6 Noroeste 28 Noroeste 0 932.1 -0.9 12
2019-08-15 18:00:00 35.3 13 Noroeste 42 Noroeste 0 932.3 -1.1 11
2019-08-15 17:00:00 35.6 9 Noroeste 28 Oeste 0 932.5 -1.3 10
2019-08-15 16:00:00 35.8 8 Noroeste 29 Norte 0 933 -1.2 10
2019-08-15 15:00:00 35 10 Norte 32 Noroeste 0 933.4 -1.2 10
2019-08-15 14:00:00 34.7 4 Noroeste 27 Noroeste 0 933.8 -0.7 11
2019-08-15 13:00:00 33.1 9 Noroeste 18 Noroeste 0 934.2 -0.1 12
2019-08-15 12:00:00 33 10 Oeste 19 Oeste 0 934.6 0.6 12
2019-08-15 11:00:00 31.1 6 Oeste 15 Oeste 0 934.5 0.6 14
2019-08-15 10:00:00 28.9 4 Sudoeste 8 Sudoeste 0 934.3 0.6 17
2019-08-15 09:00:00 24.1 2 Sur 5 Oeste 0 934 0.6 27
2019-08-15 08:00:00 20.9 5 Oeste 5 Oeste 0 933.9 0.6 30
2019-08-15 07:00:00 21 3 Oeste 6 Oeste 0 933.7 0.4 28
2019-08-15 06:00:00 21.3 5 Sur 12 Noroeste 0 933.4 -0.1 26
2019-08-15 05:00:00 23.3 9 Noroeste 12 Noroeste 0 933.3 -0.7 23
2019-08-15 04:00:00 24 7 Noroeste 10 Noroeste 0 933.3 -0.8 22
2019-08-15 03:00:00 25 6 Norte 11 Noroeste 0 933.5 -0.7 20
2019-08-15 02:00:00 25.2 7 Noroeste 13 Noroeste 0 934 -0.1 20
2019-08-15 01:00:00 25.6 7 Noroeste 12 Noroeste 0 934.1 0.7 19
2019-08-15 00:00:00 26 7 Norte 13 Norte 0 934.2 1.1 18
2019-08-14 23:00:00 27.1 9 Noroeste 15 Norte 0 934.1 1.2 16
2019-08-14 22:00:00 27.9 8 Norte 17 Noroeste 0 933.4 0.4 14
2019-08-14 21:00:00 30.8 8 Norte 22 Noroeste 0 933.1 -0.1 12
2019-08-14 20:00:00 32.8 9 Noroeste 22 Noroeste 0 932.9 -0.5 10
2019-08-14 19:00:00 33.5 11 Noroeste 25 Noroeste 0 933 -0.9 9
2019-08-14 18:00:00 33.7 11 Noroeste 31 Oeste 0 933.2 -1.2 9
2019-08-14 17:00:00 34 6 Noroeste 27 Noroeste 0 933.4 -1.5 10
2019-08-14 16:00:00 33.9 12 Noroeste 30 Noroeste 0 933.9 -1.3 10
2019-08-14 15:00:00 33 9 Noroeste 23 Oeste 0 934.4 -0.9 10
2019-08-14 14:00:00 32.1 10 Noroeste 23 Noroeste 0 934.9 -0.5 11
2019-08-14 13:00:00 30.9 6 Noroeste 22 Sudoeste 0 935.2 0.1 12
2019-08-14 12:00:00 30.3 8 Sudoeste 20 Sur 0 935.3 0.5 14
2019-08-14 11:00:00 28 8 Sur 21 Sudoeste 0 935.4 1.1 16
2019-08-14 10:00:00 24.6 7 Sur 13 Sur 0 935.1 1.1 23
2019-08-14 09:00:00 20.5 8 Sur 15 Sur 0 934.8 1 30
2019-08-14 08:00:00 18 8 Sur 15 Sur 0 934.3 0.5 35
2019-08-14 07:00:00 18.3 8 Sudeste 15 Sudeste 0 934 0.4 33
2019-08-14 06:00:00 18.2 7 Sudeste 16 Sur 0 933.8 0.1 26
2019-08-14 05:00:00 19.9 8 Sudeste 15 Sur 0 933.8 -0.1 20
2019-08-14 04:00:00 21 4 Noroeste 13 Noroeste 0 933.6 -0.3 19
2019-08-14 03:00:00 22.2 8 Noroeste 14 Norte 0 933.7 -0.1 17
2019-08-14 02:00:00 22.5 8 Noroeste 12 Noroeste 0 933.9 0.5 16
2019-08-14 01:00:00 22.4 6 Noroeste 12 Noroeste 0 933.9 1.1 17
2019-08-14 00:00:00 23.8 7 Noroeste 13 Norte 0 933.8 1.5 14
2019-08-13 23:00:00 24.7 8 Norte 16 Noroeste 0 933.4 1.4 14
2019-08-13 22:00:00 26.3 7 Norte 14 Norte 0 932.8 0.7 13
2019-08-13 21:00:00 29.3 6 Noroeste 21 Noroeste 0 932.3 0.2 11
2019-08-13 20:00:00 31 9 Noroeste 21 Noroeste 0 932 -0.2 10
2019-08-13 19:00:00 31.7 5 Norte 30 Noroeste 0 932.1 -0.7 9
2019-08-13 18:00:00 32.1 9 Oeste 25 Sudoeste 0 932.1 -1.2 9
2019-08-13 17:00:00 32.2 11 Noroeste 32 Noroeste 0 932.2 -1.3 9
2019-08-13 16:00:00 31.7 12 Noroeste 23 Nordeste 0 932.8 -0.9 10
2019-08-13 15:00:00 31.1 12 Noroeste 26 Noroeste 0 933.3 -0.3 10
2019-08-13 14:00:00 30.3 9 Noroeste 24 Oeste 0 933.5 0.1 11
2019-08-13 13:00:00 29.6 9 Noroeste 19 Noroeste 0 933.7 0.7 12
2019-08-13 12:00:00 30.1 6 Sur 14 Sudoeste 0 933.6 0.8 13
2019-08-13 11:00:00 28.3 7 Sur 15 Sudeste 0 933.4 0.9 14
2019-08-13 10:00:00 26.5 7 Sudeste 17 Este 0 933 1.1 17
2019-08-13 09:00:00 22.9 4 Este 8 Este 0 932.8 0.9 18
2019-08-13 08:00:00 19.1 3 Nordeste 4 Nordeste 0 932.5 0.6 21
2019-08-13 07:00:00 18.9 3 Sur 6 Norte 0 931.9 -0.4 21
2019-08-13 06:00:00 19.2 3 Norte 6 Norte 0 931.9 -0.6 20
2019-08-13 05:00:00 19.2 5 Noroeste 7 Noroeste 0 931.9 -0.9 22
2019-08-13 04:00:00 19.8 3 Nordeste 5 Norte 0 932.3 -0.2 22
2019-08-13 03:00:00 20.1 3 Sudeste 11 Sur 0 932.5 0.1 21
2019-08-13 02:00:00 20.6 5 Norte 11 Norte 0 932.8 0.3 20
2019-08-13 01:00:00 20.9 5 Norte 11 Nordeste 0 932.5 0.6 20
2019-08-13 00:00:00 21.6 7 Nordeste 14 Nordeste 0 932.4 1.2 19
2019-08-12 23:00:00 22.5 7 Nordeste 14 Nordeste 0 932.5 1.8 17
2019-08-12 22:00:00 24 9 Nordeste 21 Nordeste 0 931.9 1.3 16
2019-08-12 21:00:00 25.9 9 Nordeste 27 Nordeste 0 931.2 0.4 14
2019-08-12 20:00:00 28.6 9 Nordeste 27 Nordeste 0 930.7 -0.4 12
2019-08-12 19:00:00 29.4 12 Nordeste 26 Nordeste 0 930.6 -1 12
2019-08-12 18:00:00 29.9 10 Norte 29 Nordeste 0 930.8 -1.3 10
2019-08-12 17:00:00 30 9 Nordeste 23 Nordeste 0 931.1 -1.5 10
2019-08-12 16:00:00 30.2 6 Sudeste 24 Norte 0 931.6 -1.4 10
2019-08-12 15:00:00 28.8 10 Nordeste 24 Nordeste 0 932.1 -1 10
2019-08-12 14:00:00 27.5 8 Nordeste 23 Nordeste 0 932.6 -0.4 12
2019-08-12 13:00:00 25.8 4 Oeste 20 Nordeste 0 933 0.2 16
2019-08-12 12:00:00 24.1 12 Nordeste 24 Nordeste 0 933.1 0.6 22
2019-08-12 11:00:00 20.9 9 Norte 24 Noroeste 0 933 0.9 32
2019-08-12 10:00:00 17.7 9 Norte 25 Norte 0 932.8 0.8 44
2019-08-12 09:00:00 15 9 Noroeste 18 Noroeste 0 932.5 0.4 53
2019-08-12 08:00:00 13.4 7 Noroeste 17 Noroeste 0 932.1 -0.2 56
2019-08-12 07:00:00 13.9 10 Noroeste 16 Noroeste 0 932 -0.3 51
2019-08-12 06:00:00 14.3 10 Noroeste 16 Noroeste 0 932.1 -0.3 48
2019-08-12 05:00:00 15.6 9 Noroeste 19 Noroeste 0 932.3 -0.5 41
2019-08-12 04:00:00 16.5 6 Noroeste 23 Noroeste 0 932.3 -0.6 35
2019-08-12 03:00:00 17.9 11 Noroeste 23 Noroeste 0 932.4 -0.7 31
2019-08-12 02:00:00 18.8 11 Noroeste 23 Norte 0 932.8 -0.3 27
2019-08-12 01:00:00 19.5 10 Noroeste 22 Noroeste 0 932.9 0.2 25
2019-08-12 00:00:00 19.5 12 Noroeste 22 Norte 0 933.1 0.9 26
2019-08-11 23:00:00 20.4 10 Noroeste 26 Noroeste 0 933.1 1.3 24
2019-08-11 22:00:00 21.7 14 Noroeste 30 Noroeste 0 932.7 0.9 24
2019-08-11 21:00:00 23.9 14 Noroeste 31 Noroeste 0 932.2 0.5 20
2019-08-11 20:00:00 25.9 15 Noroeste 35 Noroeste 0 931.8 -0.2 13
2019-08-11 19:00:00 26.7 18 Noroeste 39 Norte 0 931.8 -0.7 15
2019-08-11 18:00:00 28 16 Noroeste 34 Noroeste 0 931.7 -1.2 14
2019-08-11 17:00:00 28.9 16 Oeste 36 Noroeste 0 932 -1.3 13
2019-08-11 16:00:00 29.2 16 Oeste 42 Oeste 0 932.5 -1.1 14
2019-08-11 15:00:00 28.2 14 Oeste 42 Oeste 0 932.9 -0.7 19
2019-08-11 14:00:00 27.4 13 Oeste 26 Oeste 0 933.3 0 21
2019-08-11 13:00:00 25.4 12 Norte 24 Noroeste 0 933.6 0.5 22
2019-08-11 12:00:00 23.7 9 Noroeste 24 Oeste 0 933.6 0.7 26
2019-08-11 11:00:00 20.9 12 Noroeste 22 Norte 0 933.3 0.9 38
2019-08-11 10:00:00 19 10 Noroeste 23 Noroeste 0 933.1 0.9 42
2019-08-11 09:00:00 17.7 10 Noroeste 20 Noroeste 0 932.9 0.7 49
2019-08-11 08:00:00 16.6 4 Norte 11 Nordeste 0 932.4 0.2 55
2019-08-11 07:00:00 15.7 7 Norte 16 Noroeste 0 932.2 0.2 62
2019-08-11 06:00:00 16.7 10 Noroeste 28 Noroeste 0 932.2 0 59
2019-08-11 05:00:00 17.9 17 Noroeste 31 Noroeste 0 932.2 -0.3 52
2019-08-11 04:00:00 19 13 Noroeste 22 Noroeste 0 932 -0.4 43
2019-08-11 03:00:00 20 12 Noroeste 25 Noroeste 0 932.2 -0.3 34
2019-08-11 02:00:00 21 11 Noroeste 23 Noroeste 0 932.5 -0.1 30
2019-08-11 01:00:00 22.3 9 Noroeste 16 Noroeste 0 932.4 0.2 24
2019-08-11 00:00:00 23.7 10 Noroeste 18 Noroeste 0 932.5 1.1 25
2019-08-10 23:00:00 24.9 10 Noroeste 18 Noroeste 0 932.6 1.4 25
2019-08-10 22:00:00 26.5 9 Noroeste 21 Noroeste 0 932.2 0.9 26
2019-08-10 21:00:00 30.2 10 Noroeste 24 Sudoeste 0 931.4 -0.2 22
2019-08-10 20:00:00 32.8 15 Sudoeste 33 Sudoeste 0 931.2 -1.1 24
2019-08-10 19:00:00 34.2 9 Sudoeste 28 Oeste 0 931.3 -1.9 23
2019-08-10 18:00:00 34.4 8 Sudoeste 28 Sudoeste 0 931.6 -2.3 23
2019-08-10 17:00:00 33.8 10 Sudoeste 31 Oeste 0 932.3 -2.2 24
2019-08-10 16:00:00 32.8 8 Sur 30 Sudoeste 0 933.2 -1.8 26
2019-08-10 15:00:00 31 9 Sudoeste 27 Sudoeste 0 933.9 -1.3 30
2019-08-10 14:00:00 30.4 9 Sudoeste 23 Sudoeste 0 934.5 -0.5 31
2019-08-10 13:00:00 27.8 8 Oeste 21 Oeste 0 935 0.2 38
2019-08-10 12:00:00 26.1 9 Oeste 19 Norte 0 935.2 0.8 44
2019-08-10 11:00:00 24.2 4 Oeste 19 Noroeste 0 935 0.5 50
2019-08-10 10:00:00 21.3 8 Norte 16 Noroeste 0 934.8 0.5 59
2019-08-10 09:00:00 19.2 6 Norte 13 Noroeste 0 934.4 0.3 65
2019-08-10 08:00:00 17.4 9 Noroeste 17 Noroeste 0 934.5 0.5 75
2019-08-10 07:00:00 17.7 7 Noroeste 14 Norte 0 934.3 0.5 79
2019-08-10 06:00:00 18.2 6 Noroeste 14 Noroeste 0 934.1 0.1 77
2019-08-10 05:00:00 18.6 5 Noroeste 18 Noroeste 0 934 -0.2 75
2019-08-10 04:00:00 19.3 8 Noroeste 17 Noroeste 0 933.8 -0.4 72
2019-08-10 03:00:00 20.3 9 Noroeste 18 Noroeste 0 934 -0.1 70
2019-08-10 02:00:00 21.3 8 Noroeste 18 Noroeste 0 934.2 0.6 69
2019-08-10 01:00:00 22.3 8 Norte 19 Noroeste 0 934.2 1.2 66
2019-08-10 00:00:00 23.3 8 Norte 19 Norte 0 934.1 1.8 64
2019-08-09 23:00:00 24.2 10 Noroeste 23 Noroeste 0 933.6 2.2 62
2019-08-09 22:00:00 25.7 11 Norte 33 Noroeste 0 933 1.5 57
2019-08-09 21:00:00 28.2 15 Norte 33 Noroeste 0 932.3 0.7 47
2019-08-09 20:00:00 32.2 14 Oeste 28 Sudoeste 0 931.4 -0.6 26
2019-08-09 19:00:00 32.6 5 Sudoeste 37 Oeste 0 931.5 -1.1 27
2019-08-09 18:00:00 34.4 16 Sudoeste 34 Sudoeste 0 931.6 -1.4 24
2019-08-09 17:00:00 34 10 Oeste 31 Sudoeste 0 932 -1.4 24
2019-08-09 16:00:00 34 13 Sudoeste 40 Sudoeste 0 932.6 -1 24
2019-08-09 15:00:00 33.2 10 Sudoeste 33 Sudoeste 0 933 -0.6 25
2019-08-09 14:00:00 31.4 13 Sudoeste 32 Sudoeste 0 933.4 0.1 30
2019-08-09 13:00:00 30 11 Sudoeste 27 Sudoeste 0 933.6 0.5 33
2019-08-09 12:00:00 28.7 12 Sudoeste 31 Oeste 0 933.6 0.8 37
2019-08-09 11:00:00 27.2 17 Oeste 27 Sudoeste 0 933.3 0.7 43
2019-08-09 10:00:00 25.3 5 Sur 11 Sudoeste 0 933.1 0.7 51
2019-08-09 09:00:00 21.6 3 Oeste 10 Noroeste 0 932.8 0.8 66
2019-08-09 08:00:00 19.6 6 Noroeste 12 Noroeste 0 932.6 0.4 72
2019-08-09 07:00:00 20 8 Noroeste 12 Noroeste 0 932.4 0.3 70
2019-08-09 06:00:00 20.3 7 Noroeste 12 Noroeste 0 932 0 69
2019-08-09 05:00:00 20.8 7 Noroeste 16 Noroeste 0 932.2 0.2 67
2019-08-09 04:00:00 21.8 9 Noroeste 18 Noroeste 0 932.1 0.4 59
2019-08-09 03:00:00 22.8 8 Noroeste 15 Noroeste 0 932 0.8 53
2019-08-09 02:00:00 23.9 8 Noroeste 18 Oeste 0 932 1.2 46
2019-08-09 01:00:00 24.7 9 Oeste 17 Oeste 0 931.7 1.4 34
2019-08-09 00:00:00 25.7 7 Sudoeste 25 Noroeste 0 931.2 1.4 26
2019-08-08 23:00:00 27 11 Sur 21 Sur 0 930.8 1.2 18
2019-08-08 22:00:00 28.1 9 Sur 22 Sur 0 930.3 0.7 14
2019-08-08 21:00:00 32.1 11 Sudoeste 29 Sudoeste 0 929.8 -0.1 13
2019-08-08 20:00:00 34.1 13 Sudoeste 31 Sudoeste 0 929.6 -0.5 12
2019-08-08 19:00:00 35.2 11 Sudoeste 36 Sudoeste 0 929.6 -0.9 10
2019-08-08 18:00:00 35.6 16 Sudoeste 42 Sur 0 929.9 -1 11
2019-08-08 17:00:00 35.5 14 Sudoeste 33 Sudoeste 0 930.1 -1.2 15
2019-08-08 16:00:00 35.1 12 Sudoeste 30 Sudoeste 0 930.5 -1.3 16
2019-08-08 15:00:00 34.4 10 Sur 26 Sudoeste 0 930.9 -1.1 18
2019-08-08 14:00:00 33.6 9 Sudoeste 23 Sudoeste 0 931.3 -0.5 19
2019-08-08 13:00:00 31.4 6 Sudoeste 26 Oeste 0 931.8 0.2 22
2019-08-08 12:00:00 29.7 5 Este 15 Sur 0 932 0.7 26
2019-08-08 11:00:00 27.3 4 Oeste 14 Noroeste 0 931.8 0.8 29
2019-08-08 10:00:00 23.9 7 Noroeste 16 Noroeste 0 931.6 0.6 39
2019-08-08 09:00:00 21.9 6 Norte 13 Norte 0 931.3 0.5 47
2019-08-08 08:00:00 19.3 6 Norte 13 Norte 0 931 0 58
2019-08-08 07:00:00 19.2 7 Norte 15 Norte 0 931 -0.1 60
2019-08-08 06:00:00 20.3 8 Norte 17 Norte 0 930.8 -0.5 55
2019-08-08 05:00:00 20.7 7 Noroeste 13 Noroeste 0 931 -0.4 51
2019-08-08 04:00:00 21.1 6 Noroeste 13 Norte 0 931.1 -0.5 51
2019-08-08 03:00:00 21.3 6 Norte 14 Noroeste 0 931.3 -0.2 51
2019-08-08 02:00:00 21.1 6 Norte 15 Noroeste 0 931.4 -0.2 52
2019-08-08 01:00:00 21.6 8 Norte 15 Noroeste 0 931.6 0.7 49
2019-08-08 00:00:00 21.9 8 Norte 15 Noroeste 0 931.5 0.9 46
2019-08-07 23:00:00 23.2 6 Norte 18 Norte 0 931.6 2.1 40
2019-08-07 22:00:00 24.3 10 Noroeste 21 Norte 0 930.9 0.1 36
2019-08-07 21:00:00 25.9 9 Noroeste 23 Nordeste 0 930.6 0.1 33
2019-08-07 20:00:00 26.5 8 Norte 20 Noroeste 0 929.5 -1 31
2019-08-07 19:00:00 27.3 12 Noroeste 31 Noroeste 0 930.8 0.3 28
2019-08-07 18:00:00 28.4 10 Noroeste 23 Oeste 0 930.5 -0.4 26
2019-08-07 17:00:00 28.7 11 Noroeste 25 Noroeste 0 930.5 -0.5 27
2019-08-07 16:00:00 29 9 Noroeste 21 Oeste 0 930.5 -0.6 21
2019-08-07 15:00:00 28.7 11 Norte 30 Noroeste 0 930.9 0 24
2019-08-07 14:00:00 29 15 Noroeste 32 Oeste 0 931 0.5 25
2019-08-07 13:00:00 29.8 11 Oeste 32 Oeste 0 931.1 0.8 25
2019-08-07 12:00:00 27.6 10 Oeste 27 Oeste 0 930.9 0.9 30
2019-08-07 11:00:00 27.4 9 Sudoeste 17 Sudoeste 0 930.5 1 30
2019-08-07 10:00:00 24.1 8 Oeste 14 Oeste 0 930.3 1.2 41
2019-08-07 09:00:00 20.9 6 Noroeste 12 Noroeste 0 930 1 58
2019-08-07 08:00:00 19.6 6 Noroeste 14 Noroeste 0 929.5 0.2 63
2019-08-07 07:00:00 19.7 8 Noroeste 15 Noroeste 0 929.1 0.1 59
2019-08-07 06:00:00 20 6 Noroeste 13 Oeste 0 929 -0.1 59
2019-08-07 05:00:00 20.8 7 Noroeste 17 Noroeste 0 929.3 -0.1 54
2019-08-07 04:00:00 21.6 9 Noroeste 19 Noroeste 0 929 -0.6 51
2019-08-07 03:00:00 22.8 10 Noroeste 21 Oeste 0 929.1 -0.5 44
2019-08-07 02:00:00 24 8 Noroeste 14 Noroeste 0 929.4 0.2 37
2019-08-07 01:00:00 24.6 6 Noroeste 12 Noroeste 0 929.6 1.1 33
2019-08-07 00:00:00 25.3 6 Noroeste 13 Noroeste 0 929.6 1.7 31
2019-08-06 23:00:00 26.8 6 Noroeste 14 Oeste 0 929.2 1.6 28
2019-08-06 22:00:00 28.3 10 Oeste 24 Sudoeste 0 928.5 0.8 15
2019-08-06 21:00:00 31.8 11 Sudoeste 32 Sudoeste 0 927.9 -0.2 12
2019-08-06 20:00:00 34.4 14 Sudoeste 33 Sudoeste 0 927.6 -1.1 10
2019-08-06 19:00:00 35.7 12 Sudoeste 35 Sudoeste 0 927.7 -1.8 7
2019-08-06 18:00:00 36.4 11 Sudoeste 34 Sur 0 928.1 -2 8
2019-08-06 17:00:00 36 16 Sudoeste 35 Sudoeste 0 928.7 -1.8 9
2019-08-06 16:00:00 35.7 11 Sudoeste 32 Sudoeste 0 929.5 -1.2 11
2019-08-06 15:00:00 34.9 11 Sudoeste 30 Sudoeste 0 930.1 -1 10
2019-08-06 14:00:00 34.2 12 Sudoeste 31 Sudoeste 0 930.5 -0.8 9
2019-08-06 13:00:00 33.1 8 Sudoeste 25 Sudoeste 0 930.7 -0.6 11
2019-08-06 12:00:00 31 9 Sudoeste 21 Oeste 0 931.1 0.2 13
2019-08-06 11:00:00 29.1 6 Oeste 17 Oeste 0 931.3 0.7 20
2019-08-06 10:00:00 27 4 Sudeste 13 Sur 0 931.3 1 25
2019-08-06 09:00:00 22.2 4 Sur 12 Sur 0 930.9 0.5 35
2019-08-06 08:00:00 18.8 9 Sur 14 Sur 0 930.6 0 42
2019-08-06 07:00:00 19.2 8 Sur 10 Sur 0 930.3 -0.5 36
2019-08-06 06:00:00 21 7 Noroeste 14 Noroeste 0 930.4 -0.4 33
2019-08-06 05:00:00 22 9 Noroeste 14 Noroeste 0 930.6 -0.4 30
2019-08-06 04:00:00 22.5 8 Noroeste 13 Noroeste 0 930.8 0 27
2019-08-06 03:00:00 23.7 8 Noroeste 13 Noroeste 0 930.8 0.1 24
2019-08-06 02:00:00 24.6 8 Oeste 13 Noroeste 0 931 0.6 22
2019-08-06 01:00:00 25.2 8 Noroeste 16 Noroeste 0 930.8 1.4 22
2019-08-06 00:00:00 26.2 6 Noroeste 18 Noroeste 0 930.7 1.9 22
2019-08-05 23:00:00 27.8 9 Oeste 23 Sudoeste 0 930.4 1.8 20
2019-08-05 22:00:00 29.9 13 Sudoeste 28 Sudoeste 0 929.4 0.9 13
2019-08-05 21:00:00 32.6 14 Sudoeste 32 Sudoeste 0 928.8 0 12
2019-08-05 20:00:00 34.8 17 Sudoeste 30 Oeste 0 928.6 -0.6 13
2019-08-05 19:00:00 36.1 14 Sudoeste 31 Oeste 0 928.5 -1.1 12
2019-08-05 18:00:00 36.6 15 Oeste 46 Sur 0 928.8 -1.4 13
2019-08-05 17:00:00 36.5 10 Sudoeste 31 Sudoeste 0 929.2 -1.5 13
2019-08-05 16:00:00 36.2 13 Sudoeste 27 Oeste 0 929.6 -1.8 13
2019-08-05 15:00:00 35.3 9 Sur 24 Oeste 0 930.2 -1.5 13
2019-08-05 14:00:00 34.5 7 Sur 24 Sudoeste 0 930.7 -1 14
2019-08-05 13:00:00 32.1 8 Noroeste 22 Sudoeste 0 931.4 -0.1 21
2019-08-05 12:00:00 30.3 6 Noroeste 17 Oeste 0 931.7 0.4 23
2019-08-05 11:00:00 28.8 7 Oeste 14 Noroeste 0 931.7 0.5 26
2019-08-05 10:00:00 26.5 6 Norte 15 Noroeste 0 931.5 0.4 30
2019-08-05 09:00:00 23.4 6 Norte 11 Norte 0 931.3 0.2 41
2019-08-05 08:00:00 20 6 Norte 14 Noroeste 0 931.2 -0.1 53
2019-08-05 07:00:00 20.2 9 Noroeste 19 Noroeste 0 931.1 -0.3 50
2019-08-05 06:00:00 20.5 9 Noroeste 16 Noroeste 0 931.1 -0.5 49
2019-08-05 05:00:00 20.6 8 Noroeste 15 Noroeste 0 931.3 -0.6 48
2019-08-05 04:00:00 21.9 10 Noroeste 19 Noroeste 0 931.4 -0.3 38
2019-08-05 03:00:00 23.1 8 Noroeste 19 Noroeste 0 931.6 0.1 30
2019-08-05 02:00:00 24.5 7 Noroeste 11 Noroeste 0 931.9 0.7 27
2019-08-05 01:00:00 25.2 7 Noroeste 11 Noroeste 0 931.7 0.9 27
2019-08-05 00:00:00 26.1 6 Norte 15 Noroeste 0 931.5 1.5 27
2019-08-04 23:00:00 27.5 8 Noroeste 16 Noroeste 0 931.2 1.7 25
2019-08-04 22:00:00 29 8 Noroeste 22 Sudoeste 0 930.8 1.4 23
2019-08-04 21:00:00 32 16 Sudoeste 29 Sudoeste 0 930 0.6 16
2019-08-04 20:00:00 34.7 10 Sudoeste 31 Sudoeste 0 929.5 -0.3 13
2019-08-04 19:00:00 35.2 10 Oeste 34 Noroeste 0 929.4 -1 14
2019-08-04 18:00:00 34.8 8 Noroeste 26 Sudoeste 0 929.4 -1.5 15
2019-08-04 17:00:00 35.3 12 Sudeste 37 Sur 0 929.8 -1.4 14
2019-08-04 16:00:00 35.1 5 Sudoeste 28 Sudoeste 0 930.4 -1.1 13
2019-08-04 15:00:00 35 14 Sudoeste 33 Sudoeste 0 930.9 -0.9 15
2019-08-04 14:00:00 34 14 Sur 31 Sudoeste 0 931.2 -0.6 18
2019-08-04 13:00:00 33 8 Sudoeste 24 Sudoeste 0 931.5 -0.3 19
2019-08-04 12:00:00 30.8 6 Sudoeste 17 Sudoeste 0 931.8 0.2 22
2019-08-04 11:00:00 29.4 5 Sudoeste 12 Oeste 0 931.8 0.5 24
2019-08-04 10:00:00 25.8 3 Noroeste 9 Noroeste 0 931.8 0.8 33
2019-08-04 09:00:00 21.7 5 Sur 13 Sudeste 0 931.6 0.7 44
2019-08-04 08:00:00 19.6 8 Sur 13 Sur 0 931.3 0.3 47
2019-08-04 07:00:00 19.4 8 Sur 12 Sudeste 0 931 0.2 45
2019-08-04 06:00:00 19.3 8 Sudeste 12 Sur 0 930.9 0.1 41
2019-08-04 05:00:00 20.8 6 Sur 13 Sudeste 0 931 0.1 33
2019-08-04 04:00:00 21.1 7 Sur 12 Sur 0 930.8 0 32
2019-08-04 03:00:00 21.8 7 Sudoeste 10 Sudoeste 0 930.8 0.1 30
2019-08-04 02:00:00 23.7 6 Sudoeste 13 Oeste 0 930.9 0.4 26
2019-08-04 01:00:00 24.7 9 Oeste 15 Oeste 0 930.8 1 24
2019-08-04 00:00:00 25.4 9 Oeste 20 Oeste 0 930.7 1.6 24
2019-08-03 23:00:00 26.8 14 Oeste 22 Oeste 0 930.5 1.6 21
2019-08-03 22:00:00 28.4 9 Sudoeste 26 Sudoeste 0 929.8 0.8 21
2019-08-03 21:00:00 31.4 15 Sudoeste 32 Sudoeste 0 929.1 -0.2 18
2019-08-03 20:00:00 33.7 14 Sudoeste 30 Sudoeste 0 928.9 -0.9 14
2019-08-03 19:00:00 35.2 14 Sudoeste 31 Sudoeste 0 929 -1.2 12
2019-08-03 18:00:00 35.6 15 Sudoeste 36 Sudoeste 0 929.3 -1.2 12
2019-08-03 17:00:00 35.6 13 Sudoeste 35 Oeste 0 929.8 -1 13
2019-08-03 16:00:00 35.7 10 Sur 27 Sudoeste 0 930.2 -0.8 13
2019-08-03 15:00:00 34.8 11 Sudoeste 32 Sudoeste 0 930.5 -0.6 14
2019-08-03 14:00:00 34.4 12 Sudoeste 32 Sudeste 0 930.8 -0.5 14
2019-08-03 13:00:00 33.5 10 Sur 26 Sudeste 0 931 -0.2 14
2019-08-03 12:00:00 32.3 6 Sur 19 Sudeste 0 931.1 0.2 14
2019-08-03 11:00:00 30.7 6 Sur 15 Sur 0 931.3 0.4 15
2019-08-03 10:00:00 28 5 Sur 10 Sur 0 931.2 0.7 19
2019-08-03 09:00:00 23.4 0 Calma 3 Oeste 0 930.9 0.7 29
2019-08-03 08:00:00 20.9 3 Noroeste 10 Oeste 0 930.9 0.6 29
2019-08-03 07:00:00 20.8 6 Oeste 10 Oeste 0 930.5 0.3 27
2019-08-03 06:00:00 19.5 5 Sur 14 Sur 0 930.2 -0.1 32
2019-08-03 05:00:00 20.9 10 Sur 15 Sudeste 0 930.3 -0.2 28
2019-08-03 04:00:00 23.6 7 Oeste 13 Noroeste 0 930.2 -0.5 21
2019-08-03 03:00:00 24.1 8 Noroeste 13 Oeste 0 930.3 -0.4 18
2019-08-03 02:00:00 24.3 7 Oeste 10 Oeste 0 930.5 -0.1 20
2019-08-03 01:00:00 25.5 8 Noroeste 13 Noroeste 0 930.7 0.7 18
2019-08-03 00:00:00 26 8 Oeste 13 Oeste 0 930.7 1.2 19
2019-08-02 23:00:00 27.3 9 Oeste 19 Oeste 0 930.6 1.4 18
2019-08-02 22:00:00 29.1 9 Sudoeste 28 Sudoeste 0 930 0.8 17
2019-08-02 21:00:00 32.3 14 Sudoeste 35 Sudoeste 0 929.5 0.1 14
2019-08-02 20:00:00 34.7 17 Sudoeste 41 Sudoeste 0 929.2 -0.5 12
2019-08-02 19:00:00 36 8 Oeste 24 Sudoeste 0 929.2 -1 10
2019-08-02 18:00:00 36.2 7 Norte 27 Oeste 0 929.4 -1.3 9
2019-08-02 17:00:00 35.8 7 Norte 32 Oeste 0 929.7 -1.3 10
2019-08-02 16:00:00 35.7 7 Noroeste 37 Oeste 0 930.2 -1.2 10
2019-08-02 15:00:00 34.3 12 Oeste 23 Oeste 0 930.7 -0.8 11
2019-08-02 14:00:00 34.3 6 Sur 22 Oeste 0 931 -0.5 11
2019-08-02 13:00:00 33.6 7 Sudoeste 21 Sudoeste 0 931.4 0 13
2019-08-02 12:00:00 31.5 6 Oeste 18 Oeste 0 931.5 0.5 15
2019-08-02 11:00:00 28.9 6 Norte 20 Norte 0 931.5 0.8 18
2019-08-02 10:00:00 26.3 7 Norte 13 Noroeste 0 931.4 0.8 23
2019-08-02 09:00:00 22.7 6 Norte 12 Norte 0 931 0.6 29
2019-08-02 08:00:00 20 6 Norte 12 Noroeste 0 930.7 0.1 34
2019-08-02 07:00:00 19.4 6 Noroeste 14 Noroeste 0 930.6 0 35
2019-08-02 06:00:00 19.8 10 Noroeste 18 Noroeste 0 930.4 -0.1 34
2019-08-02 05:00:00 20.4 11 Noroeste 19 Noroeste 0 930.6 0 33
2019-08-02 04:00:00 20.7 9 Noroeste 17 Noroeste 0 930.6 0 31
2019-08-02 03:00:00 21.9 10 Noroeste 19 Noroeste 0 930.5 -0.1 26
2019-08-02 02:00:00 23.7 11 Noroeste 21 Noroeste 0 930.6 0.3 22
2019-08-02 01:00:00 24.5 8 Noroeste 14 Noroeste 0 930.6 1.1 21
2019-08-02 00:00:00 24.8 6 Noroeste 9 Norte 0 930.6 2 21
2019-08-01 23:00:00 26.4 6 Noroeste 17 Noroeste 0 930.3 2.1 19
2019-08-01 22:00:00 28.1 9 Noroeste 29 Norte 0 929.5 1.5 17
2019-08-01 21:00:00 30.9 12 Norte 24 Norte 0 928.6 0.4 15
2019-08-01 20:00:00 32.9 12 Noroeste 25 Noroeste 0 928.2 -0.3 13
2019-08-01 19:00:00 33.9 14 Noroeste 26 Oeste 0 928 -1 12
2019-08-01 18:00:00 34.1 8 Noroeste 27 Oeste 0 928.2 -1.3 14
2019-08-01 17:00:00 35.2 9 Sudoeste 24 Sudoeste 0 928.5 -1.3 14
2019-08-01 16:00:00 33.8 12 Sudoeste 31 Sudoeste 0 929 -1.2 18
2019-08-01 15:00:00 33.2 9 Sur 23 Sudoeste 0 929.5 -0.8 21
2019-08-01 14:00:00 32 5 Sudoeste 18 Oeste 0 929.8 -0.3 22
2019-08-01 13:00:00 30.5 8 Sudoeste 18 Sudoeste 0 930.2 0.4 22
2019-08-01 12:00:00 28.3 10 Sudoeste 24 Oeste 0 930.3 0.8 31
2019-08-01 11:00:00 26.7 8 Sudoeste 18 Sudoeste 0 930.1 0.9 39
2019-08-01 10:00:00 23.4 9 Sur 20 Sur 0 929.8 0.8 57
2019-08-01 09:00:00 20.2 9 Sur 18 Sudeste 0 929.5 0.5 75
2019-08-01 08:00:00 18.5 9 Sur 19 Sur 0 929.2 0.3 81
2019-08-01 07:00:00 19 10 Sur 19 Sudeste 0 929 0.2 78
2019-08-01 06:00:00 19.5 9 Sur 18 Sur 0 929 0.4 74
2019-08-01 05:00:00 20 10 Sur 18 Sur 0 928.9 0.2 69
2019-08-01 04:00:00 20.6 9 Sur 19 Sur 0 928.8 0.3 63
2019-08-01 03:00:00 21.6 10 Sur 21 Sur 0 928.6 0.1 60
2019-08-01 02:00:00 22.9 10 Sur 24 Sur 0 928.7 0.4 56
2019-08-01 01:00:00 24.4 12 Sur 28 Sudoeste 0 928.5 0.9 51
2019-08-01 00:00:00 25.8 12 Sudoeste 29 Sudoeste 0 928.5 1.3 42
2019-07-31 23:00:00 27.8 16 Sudoeste 31 Sudoeste 0 928.3 1.4 29
2019-07-31 22:00:00 28.8 12 Sudoeste 27 Sudoeste 0 927.6 0.7 28
2019-07-31 21:00:00 31.1 17 Sudoeste 30 Sudoeste 0 927.2 0 23
2019-07-31 20:00:00 33.5 15 Sudoeste 28 Sudoeste 0 926.9 -0.7 19
2019-07-31 19:00:00 34.9 10 Sur 33 Sudoeste 0 926.9 -1.2 17
2019-07-31 18:00:00 35.5 7 Sur 30 Sur 0 927.2 -1.3 15
2019-07-31 17:00:00 36 10 Sudoeste 31 Sudoeste 0 927.6 -1.7 14
2019-07-31 16:00:00 35.4 11 Sur 26 Sudoeste 0 928.1 -1.8 14
2019-07-31 15:00:00 35.2 9 Sudoeste 22 Sudoeste 0 928.5 -1.4 13
2019-07-31 14:00:00 33 9 Sur 24 Sudoeste 0 929.3 -0.3 12
2019-07-31 13:00:00 32.1 8 Sur 21 Sur 0 929.9 0.4 10
2019-07-31 12:00:00 31.6 9 Sur 21 Sudeste 0 929.9 0.8 10
2019-07-31 11:00:00 30 9 Sur -- -- 0 929.6 0.8 10
2019-07-31 10:00:00 28 8 Sur 16 Sur 0 929.5 0.5 14
2019-07-31 09:00:00 23.6 5 Este 8 Nordeste 0 929.1 0.4 18
2019-07-31 08:00:00 19.9 6 Norte 10 Noroeste 0 928.8 0.2 23
2019-07-31 07:00:00 19.9 6 Norte 16 Noroeste 0 929 0.2 23
2019-07-31 06:00:00 21.4 9 Noroeste 16 Noroeste 0 928.7 -0.4 21
2019-07-31 05:00:00 22 8 Noroeste 15 Noroeste 0 928.6 -1 20
2019-07-31 04:00:00 22.3 9 Norte 18 Norte 0 928.8 -1.1 15
2019-07-31 03:00:00 22.7 9 Norte 22 Norte 0 929.1 -0.7 12
2019-07-31 02:00:00 22.7 8 Norte 18 Norte 0 929.6 0.1 11
2019-07-31 01:00:00 23.3 9 Norte 19 Noroeste 0 929.9 0.9 10
2019-07-31 00:00:00 23.8 10 Noroeste 22 Noroeste 0 929.8 1.3 10
2019-07-30 23:00:00 24.9 11 Noroeste 21 Noroeste 0 929.5 1.2 9
2019-07-30 22:00:00 26.4 11 Noroeste 21 Noroeste 0 929 0.7 11
2019-07-30 21:00:00 29.5 12 Noroeste 25 Noroeste 0 928.5 -0.2 11
2019-07-30 20:00:00 31.3 11 Noroeste 26 Noroeste 0 928.3 -0.8 12
2019-07-30 19:00:00 32 8 Noroeste 27 Noroeste 0 928.3 -1.4 12
2019-07-30 18:00:00 32.7 6 Sudoeste 27 Norte 0 928.7 -1.4 13
2019-07-30 17:00:00 33 9 Oeste 29 Norte 0 929.1 -1.6 13
2019-07-30 16:00:00 31.9 12 Norte 25 Norte 0 929.7 -1.3 14
2019-07-30 15:00:00 31.6 9 Sur 24 Oeste 0 930.1 -1.1 14
2019-07-30 14:00:00 30.4 7 Sudoeste 22 Noroeste 0 930.7 -0.5 17
2019-07-30 13:00:00 28.2 8 Noroeste 18 Noroeste 0 931 -0.1 20
2019-07-30 12:00:00 26.4 8 Nordeste 22 Norte 0 931.2 0.4 23
2019-07-30 11:00:00 23 11 Norte 21 Noroeste 0 931.2 0.7 29
2019-07-30 10:00:00 20.6 11 Noroeste 24 Noroeste 0 931.1 0.7 34
2019-07-30 09:00:00 18.1 12 Noroeste 24 Norte 0 930.8 0.6 41
2019-07-30 08:00:00 16.1 10 Noroeste 20 Noroeste 0 930.5 0.3 47
2019-07-30 07:00:00 16 10 Noroeste 20 Norte 0 930.4 0.4 47
2019-07-30 06:00:00 16.6 11 Noroeste 24 Noroeste 0 930.2 0.2 44
2019-07-30 05:00:00 17.7 14 Noroeste 24 Noroeste 0 930.2 0.1 41
2019-07-30 04:00:00 18.5 10 Noroeste 19 Noroeste 0 930 -0.2 37
2019-07-30 03:00:00 19.5 11 Noroeste 21 Noroeste 0 930 0.1 34
2019-07-30 02:00:00 20.9 10 Noroeste 23 Noroeste 0 930.1 0.5 31
2019-07-30 01:00:00 22.2 12 Noroeste 22 Noroeste 0 930.2 1.3 29
2019-07-30 00:00:00 23.4 10 Noroeste 22 Noroeste 0 929.9 1.4 29
2019-07-29 23:00:00 24.6 10 Noroeste 25 Noroeste 0 929.6 1.5 26
2019-07-29 22:00:00 26 13 Noroeste 30 Norte 0 928.9 0.9 27
2019-07-29 21:00:00 28.7 14 Noroeste 35 Noroeste 0 928.5 0.3 23
2019-07-29 20:00:00 30.2 17 Noroeste 30 Noroeste 0 928.1 -0.3 17
2019-07-29 19:00:00 31.3 16 Noroeste 35 Noroeste 0 928 -0.6 13
2019-07-29 18:00:00 32.2 13 Oeste 31 Oeste 0 928.2 -0.7 13
2019-07-29 17:00:00 32.3 20 Oeste 39 Oeste 0 928.4 -0.5 10
2019-07-29 16:00:00 32.3 12 Oeste 32 Oeste 0 928.6 -0.7 11
2019-07-29 15:00:00 31 13 Noroeste 36 Oeste 0 928.9 -0.5 13
2019-07-29 14:00:00 30.9 6 Oeste 30 Oeste 0 928.9 -0.4 15
2019-07-29 13:00:00 29.3 12 Noroeste 27 Oeste 0 929.3 0.2 21
2019-07-29 12:00:00 28.7 8 Oeste 21 Oeste 0 929.4 0.5 24
2019-07-29 11:00:00 26.3 8 Oeste 16 Noroeste 0 929.3 0.9 29
2019-07-29 10:00:00 23.9 3 Noroeste 10 Noroeste 0 929.1 1.1 33
2019-07-29 09:00:00 20.4 7 Noroeste 12 Noroeste 0 928.9 1.1 37
2019-07-29 08:00:00 18.1 6 Noroeste 12 Noroeste 0 928.4 0.8 51
2019-07-29 07:00:00 17.9 7 Oeste 12 Noroeste 0 928 0.4 56
2019-07-29 06:00:00 17.2 6 Oeste 12 Oeste 0 927.8 0.2 70
2019-07-29 05:00:00 18.2 5 Sur 11 Sur 0 927.6 0 64
2019-07-29 04:00:00 19.6 6 Sur 10 Sur 0 927.6 0 53
2019-07-29 03:00:00 20.8 6 Sur 9 Oeste 0 927.6 0 44
2019-07-29 02:00:00 22 6 Oeste 10 Oeste 0 927.6 0.1 41
2019-07-29 01:00:00 22.4 6 Oeste 11 Noroeste 0 927.6 0.9 39
2019-07-29 00:00:00 23.2 6 Oeste 12 Oeste 0 927.6 1.4 40
2019-07-28 23:00:00 23.9 5 Sudoeste 10 Oeste 0 927.5 1.8 34
2019-07-28 22:00:00 25.8 6 Oeste 19 Noroeste 0 926.7 1.1 30
2019-07-28 21:00:00 28.3 11 Noroeste 23 Noroeste 0 926.2 0.5 26
2019-07-28 20:00:00 29.7 9 Noroeste 21 Noroeste 0 925.7 -0.3 24
2019-07-28 19:00:00 29.8 9 Noroeste 22 Noroeste 0 925.6 -1 24
2019-07-28 18:00:00 31.2 10 Sudoeste 26 Sudoeste 0 925.7 -1.2 23
2019-07-28 17:00:00 29.1 6 Oeste 17 Oeste 0 926 -1.3 28
2019-07-28 16:00:00 28.2 9 Norte 22 Noroeste 0 926.6 -1.1 30
2019-07-28 15:00:00 27.9 5 Norte 22 Sudeste 0 926.9 -0.8 31
2019-07-28 14:00:00 28.2 6 Sudeste 21 Sudeste 0 927.3 -0.6 32
2019-07-28 13:00:00 25.6 8 Sudoeste 22 Sudoeste 0 927.7 -0.2 39
2019-07-28 12:00:00 26.2 6 Este 18 Este 0 927.7 -0.2 39
2019-07-28 11:00:00 23.4 5 Nordeste 19 Sudeste 0 927.9 0 48
2019-07-28 10:00:00 21.2 5 Este 12 Este 0 927.9 0.4 56
2019-07-28 09:00:00 18.1 4 Norte 8 Norte 0 927.9 0.7 69
2019-07-28 08:00:00 15.5 4 Sudoeste 6 Sudoeste 0 927.9 0.6 88
2019-07-28 07:00:00 15.4 4 Sur 7 Sur 0 927.5 0.1 84
2019-07-28 06:00:00 16.1 3 Oeste 8 Sudoeste 0 927.2 -0.4 83
2019-07-28 05:00:00 16.8 4 Sur 14 Oeste 0 927.3 -0.6 80
2019-07-28 04:00:00 17.6 7 Oeste 16 Noroeste 0 927.4 -0.6 79
2019-07-28 03:00:00 18.2 6 Oeste 11 Oeste 0 927.6 -0.5 76
2019-07-28 02:00:00 18.5 7 Oeste 14 Oeste 0 927.9 -0.1 74
2019-07-28 01:00:00 18.7 5 Sur 15 Sudoeste 0 928 0.7 70
2019-07-28 00:00:00 19.7 8 Noroeste 15 Noroeste 0 928.1 1.3 65
2019-07-27 23:00:00 20.4 10 Oeste 28 Oeste 0 928 1.5 66
2019-07-26 12:00:00 26.2 19 Sudoeste 39 Sudoeste 0 930.1 0.1 41
2019-07-26 11:00:00 23.8 13 Sudoeste 21 Sudoeste 0 930.3 0.6 56
2019-07-26 10:00:00 23.7 7 Sudoeste 15 Oeste 0 930.3 0.5 57
2019-07-26 09:00:00 20.8 5 Oeste 10 Oeste 0 930 0.1 68
2019-07-26 08:00:00 19.1 5 Oeste 10 Oeste 0 929.7 -0.2 74
2019-07-26 07:00:00 19.6 7 Oeste 12 Noroeste 0 929.8 -0.4 72
2019-07-26 06:00:00 20.8 6 Noroeste 15 Noroeste 0 929.9 -0.2 68
2019-07-26 05:00:00 21.6 8 Noroeste 21 Noroeste 0 929.9 -0.4 65
2019-07-26 04:00:00 22.4 8 Oeste 17 Oeste 0 930.2 0 53
2019-07-26 03:00:00 23 5 Sur 12 Sudoeste 0 930.1 -0.3 41
2019-07-26 02:00:00 23.7 6 Sur 14 Sur 0 930.3 0.2 36
2019-07-26 01:00:00 24.9 6 Sur 22 Sudoeste 0 930.2 0.6 35
2019-07-26 00:00:00 25.7 8 Sudoeste 13 Sudoeste 0 930.4 1.3 33
2019-07-25 23:00:00 27.3 6 Oeste 25 Noroeste 0 930.1 1.1 27
2019-07-25 22:00:00 29.2 12 Sudoeste 36 Sudoeste 0 929.6 0.6 19
2019-07-25 21:00:00 31.8 15 Sudoeste 33 Sudoeste 0 929.1 -0.2 14
2019-07-25 20:00:00 32.2 16 Sudoeste 36 Sudoeste 0 929 -0.5 13
2019-07-25 19:00:00 34.3 14 Sudoeste 38 Sudoeste 0 929 -0.9 13
2019-07-25 18:00:00 35 18 Sudoeste 36 Oeste 0 929.3 -1 14
2019-07-25 17:00:00 35.6 15 Sudoeste 35 Sudoeste 0 929.5 -1.3 15
2019-07-25 16:00:00 35.2 15 Sudoeste 32 Sudoeste 0 929.9 -1.1 14
2019-07-25 15:00:00 34.6 18 Sudoeste 37 Sur 0 930.3 -0.9 17
2019-07-25 14:00:00 34.3 12 Sur 33 Sur 0 930.8 -0.6 17
2019-07-25 13:00:00 33.8 10 Sur 29 Sur 0 931 -0.4 20
2019-07-25 12:00:00 31.8 9 Sur -- -- -- 931.2 0.1 24
2019-07-25 11:00:00 30.3 6 Sur 17 Sur 0 931.4 0.7 30
2019-07-25 10:00:00 27.4 9 Sur 19 Sur 0 931.4 0.9 37
2019-07-25 09:00:00 24.4 6 Sur 12 Sur 0 931.1 0.7 48
2019-07-25 08:00:00 21.5 3 Sur 8 Sur 0 930.7 0 57
2019-07-25 07:00:00 21 4 Oeste 10 Oeste 0 930.5 -0.3 59
2019-07-25 06:00:00 22.7 6 Noroeste 13 Oeste 0 930.4 -0.4 52
2019-07-25 05:00:00 22.8 10 Oeste 14 Oeste 0 930.7 -0.4 55
2019-07-25 04:00:00 23.6 6 Oeste 17 Sudoeste 0 930.8 -0.3 52
2019-07-25 03:00:00 24.4 10 Sudoeste 24 Sudoeste 0 930.8 0.2 50
2019-07-25 02:00:00 25.1 15 Sudoeste 28 Sudoeste 0 931.1 0.9 46
2019-07-25 01:00:00 25.7 9 Sur 17 Sur 0 931.1 1.5 33
2019-07-25 00:00:00 27.6 7 Sudoeste 15 Sudoeste 0 930.6 1.5 28
2019-07-24 23:00:00 28.7 8 Sudoeste 18 Sudoeste 0 930.2 1.2 26
2019-07-24 22:00:00 30.4 8 Sudoeste 18 Sudoeste 0 929.6 0.5 22
2019-07-24 21:00:00 33.1 12 Sudoeste 27 Sudoeste 0 929.1 -0.6 17
2019-07-24 20:00:00 34.7 16 Sudoeste 31 Sudoeste 0 929 -1 16
2019-07-24 19:00:00 35.8 15 Sudoeste 35 Sudoeste 0 929.1 -1.2 14
2019-07-24 18:00:00 36.4 12 Sur 34 Sudoeste 0 929.7 -1.1 13
2019-07-24 17:00:00 36.7 17 Sudoeste 77 Oeste 0 930 -1.2 13
2019-07-24 16:00:00 36.4 12 Sudoeste 30 Sur 0 930.3 -1.1 15
2019-07-24 15:00:00 35.5 12 Sudeste 28 Sudoeste 0 930.8 -0.7 18
2019-07-24 14:00:00 35.7 11 Sur 24 Sudoeste 0 931.2 -0.4 17
2019-07-24 13:00:00 34.6 10 Sur 26 Sur 0 931.4 -0.1 20
2019-07-24 12:00:00 33.3 6 Sur 18 Sudeste 0 931.5 0 28
2019-07-24 11:00:00 31.1 6 Sur 13 Sur 0 931.6 0.4 33
2019-07-24 10:00:00 28.5 7 Sur 12 Sur 0 931.5 0.4 42
2019-07-24 09:00:00 24.8 6 Sudeste 12 Sudeste 0 931.5 0.5 57
2019-07-24 08:00:00 22 5 Sudeste 9 Sudeste 0 931.2 0 67
2019-07-24 07:00:00 21.8 4 Sudeste 14 Sur 0 931.1 -0.4 65
2019-07-24 06:00:00 23.1 9 Sur 16 Sur 0 931 -0.8 59
2019-07-24 05:00:00 23.9 8 Sur 14 Sur 0 931.2 -0.8 51
2019-07-24 04:00:00 24.5 6 Sur 10 Sur 0 931.5 -0.6 44
2019-07-24 03:00:00 25.6 2 Sudeste 16 Nordeste 0 931.8 -0.1 39
2019-07-24 02:00:00 27.1 9 Oeste 17 Oeste 0 932 0.5 36
2019-07-24 01:00:00 28 10 Oeste 19 Noroeste 0 932.1 1.1 34
2019-07-24 00:00:00 28.2 8 Sur 18 Sudoeste 0 931.9 1.4 33
2019-07-23 23:00:00 29.9 10 Sudoeste 17 Sudoeste 0 931.5 1.6 29
2019-07-23 22:00:00 31.3 9 Sudoeste 26 Sudoeste 0 931 0.9 26
2019-07-23 21:00:00 33.5 12 Sudoeste 30 Sudoeste 0 930.5 0.1 21
2019-07-23 20:00:00 34.9 18 Sudoeste 38 Oeste 0 929.9 -0.9 18
2019-07-23 19:00:00 35.6 21 Sudoeste 42 Sudoeste 0 930.1 -1.2 19
2019-07-23 18:00:00 36.5 19 Sudoeste 36 Sudoeste 0 930.4 -1.2 17
2019-07-23 17:00:00 36.1 20 Sudoeste 42 Sudoeste 0 930.8 -1 18
2019-07-23 16:00:00 37.3 15 Sudoeste 39 Sudoeste 0 931.3 -0.7 15
2019-07-23 15:00:00 36.5 13 Sur 40 Sur 0 931.6 -0.5 16
2019-07-23 14:00:00 36.2 11 Sur 33 Sudoeste 0 931.8 -0.8 15
2019-07-23 13:00:00 35.2 10 Sudeste 32 Este 0 932 -0.7 18
2019-07-23 12:00:00 34.1 8 Sudeste 25 Sudeste 0 932.1 -0.8 20
2019-07-23 11:00:00 31.7 9 Sudeste 29 Este 0 932.6 -0.3 22
2019-07-23 10:00:00 29.6 9 Este 15 Este 0 932.7 0.5 31
2019-07-23 09:00:00 26.3 0 Calma 12 Oeste 0 932.9 0.5 45
2019-07-23 08:00:00 23.2 5 Sudoeste 7 Sur 0 932.9 0.7 53
2019-07-23 07:00:00 23.2 2 Este 5 Sudeste 0 932.2 -0.4 54
2019-07-23 06:00:00 23.6 2 Sur 12 Sudeste 0 932.4 -0.5 50
2019-07-23 05:00:00 24.4 8 Este 15 Este 0 932.2 -0.8 49
2019-07-23 04:00:00 24.3 6 Este 11 Este 0 932.6 -0.6 47
2019-07-23 03:00:00 26.1 5 Sur 22 Sur 0 932.9 0.1 42
2019-07-23 02:00:00 27.1 13 Sudoeste 33 Sur 0 933 0.8 36
2019-07-23 01:00:00 28.2 17 Sudoeste 31 Sur 0 933.2 1.6 30
2019-07-23 00:00:00 29.6 11 Sudoeste 22 Sudoeste 0 932.8 1.4 29
2019-07-22 23:00:00 30.6 7 Sudoeste 19 Oeste 0 932.2 0.8 31
2019-07-22 22:00:00 32 12 Sudoeste 21 Sudoeste 0 931.6 -0.1 28
2019-07-22 21:00:00 34.3 11 Sudoeste 26 Sudoeste 0 931.4 -0.9 23
2019-07-22 20:00:00 36.2 9 Sur 24 Sur 0 931.4 -1.6 19
2019-07-22 19:00:00 37 12 Sudeste 43 Sudeste 0 931.7 -1.5 18
2019-07-22 18:00:00 37.8 11 Sudeste 32 Sudoeste 0 932.3 -1.2 16
2019-07-22 17:00:00 37.6 12 Sudeste 36 Sur 0 933 -1 15
2019-07-22 16:00:00 37.3 15 Sur 33 Sudoeste 0 933.2 -1.3 17
2019-07-22 15:00:00 36.7 7 Sudeste 34 Este 0 933.5 -1.3 19
2019-07-22 14:00:00 35.3 7 Este 24 Sur 0 934 -0.9 21
2019-07-22 13:00:00 34.3 7 Este 21 Este 0 934.5 -0.1 23
2019-07-22 12:00:00 32 8 Sudeste 28 Sur 0 934.8 0.2 25
2019-07-22 11:00:00 29.8 17 Sur 33 Sur 0 934.9 0.7 30
2019-07-22 10:00:00 28.2 10 Sur 18 Sur 0 934.6 0.5 40
2019-07-22 09:00:00 24.5 9 Sur 17 Sudeste 0 934.6 0.6 52
2019-07-22 08:00:00 21.5 8 Sudeste 17 Sudeste 0 934.2 0.3 66
2019-07-22 07:00:00 21.8 9 Sur 14 Sudeste 0 934.1 0.1 61
2019-07-22 06:00:00 21.8 9 Sudeste 17 Sudeste 0 934 -0.1 64
2019-07-22 05:00:00 22.5 9 Sur 25 Sur 0 933.9 -0.4 62
2019-07-22 04:00:00 23.5 11 Sur 24 Sudeste 0 934 -0.1 59
2019-07-22 03:00:00 24.7 11 Sur 22 Sur 0 934.1 0.6 51
2019-07-22 02:00:00 26.5 10 Sur 21 Sur 0 934.3 1.1 40
2019-07-22 01:00:00 28.6 8 Sur 16 Sur 0 934.1 1.6 30
2019-07-22 00:00:00 29.9 10 Sudoeste 18 Sudoeste 0 933.5 1.3 29
2019-07-21 23:00:00 30.5 8 Sudoeste 18 Oeste 0 933.2 1.3 28
2019-07-21 22:00:00 32.3 11 Sudoeste 24 Sudoeste 0 932.5 0.9 24
2019-07-21 21:00:00 34.9 6 Oeste 14 Norte 0 932.2 0.3 19
2019-07-21 20:00:00 35.3 6 Norte 19 Nordeste 0 931.9 -0.5 19
2019-07-21 19:00:00 39.7 10 Sur 30 Sur 0 931.6 -1.3 14
2019-07-21 18:00:00 39.5 8 Sudoeste 36 Sudoeste 0 931.9 -1.5 14
2019-07-21 17:00:00 40 10 Sudoeste 26 Sudoeste 0 932.4 -1.3 14
2019-07-21 16:00:00 39.2 10 Sur 22 Sur 0 932.9 -1 15
2019-07-21 15:00:00 39.3 9 Sur 31 Sudeste 0 933.4 -0.3 15
2019-07-21 14:00:00 37.8 10 Sur 25 Sur 0 933.7 0.1 16
2019-07-21 13:00:00 37 9 Sudoeste 20 Sur 0 933.9 0.4 15
2019-07-21 12:00:00 34.2 6 Sur 19 Sudoeste 0 933.7 0.2 18
2019-07-21 11:00:00 32.5 6 Sur 13 Sur 0 933.6 0.5 21
2019-07-21 10:00:00 29.3 5 Sudeste 9 Sudeste 0 933.5 0.7 27
2019-07-21 09:00:00 24.6 3 Sur 14 Sudeste 0 933.5 0.9 42
2019-07-21 08:00:00 21.9 7 Sudeste 16 Sudeste 0 933.1 0.8 51
2019-07-21 07:00:00 21.3 9 Sur 13 Sudeste 0 932.8 0.3 50
2019-07-21 06:00:00 22.3 8 Sur 12 Sudeste 0 932.6 0 43
2019-07-21 05:00:00 24.4 6 Noroeste 14 Noroeste 0 932.3 -0.2 34
2019-07-21 04:00:00 25 8 Noroeste 12 Noroeste 0 932.5 0.4 31
2019-07-21 03:00:00 26.2 6 Oeste 15 Noroeste 0 932.6 0.8 27
2019-07-21 02:00:00 27.6 8 Noroeste 14 Noroeste 0 932.5 1 25
2019-07-21 01:00:00 28.3 7 Noroeste 15 Noroeste 0 932.1 1.3 24
2019-07-21 00:00:00 29.2 6 Norte 15 Noroeste 0 931.8 1.8 23
2019-07-20 23:00:00 30.3 9 Noroeste 17 Noroeste 0 931.5 1.9 21
2019-07-20 22:00:00 31.5 8 Norte 21 Noroeste 0 930.8 1.3 19
2019-07-20 21:00:00 33.7 11 Norte 32 Norte 0 930 0.3 17
2019-07-20 20:00:00 36.3 9 Noroeste 18 Norte 0 929.6 -0.3 14
2019-07-20 19:00:00 37.1 6 Oeste 22 Noroeste 0 929.5 -0.7 14
2019-07-20 18:00:00 37.3 9 Oeste 25 Oeste 0 929.7 -0.9 14
2019-07-20 17:00:00 36.8 6 Nordeste 25 Noroeste 0 929.9 -1 14
2019-07-20 16:00:00 36.3 7 Nordeste 31 Noroeste 0 930.2 -0.8 14
2019-07-20 15:00:00 35.7 10 Noroeste 22 Noroeste 0 930.6 -0.6 16
2019-07-20 14:00:00 34.8 8 Noroeste 21 Noroeste 0 930.9 -0.1 17
2019-07-20 13:00:00 34.1 6 Sudoeste 17 Oeste 0 931 0.2 19
2019-07-20 12:00:00 32.1 5 Oeste 18 Noroeste 0 931.2 0.7 22
2019-07-20 11:00:00 29.7 4 Sudoeste 13 Sur 0 931 0.8 27
2019-07-20 10:00:00 27.2 7 Sur 15 Sur 0 930.8 1.2 33
2019-07-20 09:00:00 23.6 8 Sur 17 Sudeste 0 930.5 1 42
2019-07-20 08:00:00 21.6 9 Sur 17 Sudeste 0 930.2 0.9 46
2019-07-20 07:00:00 21.4 6 Sur 13 Sur 0 929.6 0.3 44
2019-07-20 06:00:00 21.7 8 Sur 16 Sur 0 929.5 0.5 44
2019-07-20 05:00:00 22 10 Sur 19 Sur 0 929.3 0.4 44
2019-07-20 04:00:00 22.6 10 Sur 22 Sur 0 929.3 0.4 44
2019-07-20 03:00:00 23.8 12 Sur 28 Sur 0 929 0.4 40
2019-07-20 02:00:00 25.3 13 Sur 24 Sur 0 928.9 0.5 31
2019-07-20 01:00:00 26.8 8 Sur 18 Sudoeste 0 928.9 1 24
2019-07-20 00:00:00 29.6 11 Sudoeste 21 Sudoeste 0 928.6 1 19
2019-07-19 23:00:00 30.4 10 Sudoeste 18 Sudoeste 0 928.4 0.9 17
2019-07-19 22:00:00 31.6 9 Sudoeste 14 Sudoeste 0 927.9 0.3 14
2019-07-19 21:00:00 35.3 7 Sur 24 Sudoeste 0 927.6 -0.2 11
2019-07-19 20:00:00 36.8 8 Sudoeste 19 Sudoeste 0 927.5 -0.8 11
2019-07-19 19:00:00 37.3 8 Sur 26 Oeste 0 927.6 -1.3 10
2019-07-19 18:00:00 38.1 7 Sur 26 Sudeste 0 927.8 -1.8 10
2019-07-19 17:00:00 37.2 6 Sur 23 Sudeste 0 928.3 -1.8 10
2019-07-19 16:00:00 37.6 9 Sudoeste 27 Sur 0 928.9 -1.6 11
2019-07-19 15:00:00 36.4 10 Sur 35 Sur 0 929.6 -1.3 13
2019-07-19 14:00:00 35.4 9 Sudoeste 26 Sur 0 930.1 -0.9 14
2019-07-19 13:00:00 34.4 6 Sur 20 Sudeste 0 930.5 -0.4 19
2019-07-19 12:00:00 32.4 6 Sur 18 Sur 0 930.9 0.4 23
2019-07-19 11:00:00 30.3 7 Sur 17 Sur 0 931 0.7 29
2019-07-19 10:00:00 27.4 8 Sudoeste 17 Sur 0 930.9 0.9 38
2019-07-19 09:00:00 24.3 8 Sur 16 Sur 0 930.5 0.5 48
2019-07-19 08:00:00 21.9 8 Sur 14 Sur 0 930.3 0.4 55
2019-07-19 07:00:00 20.9 7 Sur 15 Sudeste 0 930 -0.1 58
2019-07-19 06:00:00 21.5 8 Sur 15 Sudeste 0 930 -0.4 56
2019-07-19 05:00:00 21.9 9 Sur 17 Sur 0 929.9 -0.6 49
2019-07-19 04:00:00 22.8 10 Sur 17 Sur 0 930.1 -0.3 42
2019-07-19 03:00:00 24.5 9 Sur 14 Oeste 0 930.4 0.2 31
2019-07-19 02:00:00 25.8 9 Oeste 16 Oeste 0 930.5 0.6 29
2019-07-19 01:00:00 26.2 9 Oeste 17 Oeste 0 930.4 1 28
2019-07-19 00:00:00 26.8 9 Oeste 18 Sudoeste 0 930.2 1.1 27